Time;durP1;ratioP1;P1;durP2;ratioP2;P2;SDS_P1;SDS_P2;PMS_P1;PMS_P2;Temp;Humidity;BMP_temperature;BMP_pressure;BME280_temperature;BME280_humidity;BME280_pressure;Samples;Min_cycle;Max_cycle;Signal;HPM_P1;HPM_P2
2023/05/21 00:02:08;;;;;;;3.03;1.08;;;13.60;99.90;;;;;;4969256;28;20047;-92
2023/05/21 00:04:34;;;;;;;3.25;1.13;;;13.50;99.90;;;;;;4958459;28;20077;-93
2023/05/21 00:07:00;;;;;;;2.50;1.45;;;13.50;99.90;;;;;;4953843;28;20508;-93
2023/05/21 00:09:25;;;;;;;8.18;1.67;;;13.40;99.90;;;;;;4954068;28;20078;-92
2023/05/21 00:11:51;;;;;;;5.15;1.17;;;13.40;99.90;;;;;;4954263;28;20034;-93
2023/05/21 00:14:16;;;;;;;5.05;1.15;;;13.40;99.90;;;;;;4954107;29;20091;-92
2023/05/21 00:16:43;;;;;;;4.10;1.75;;;13.30;99.90;;;;;;4943899;28;20104;-92
2023/05/21 00:19:09;;;;;;;4.57;1.20;;;13.30;99.90;;;;;;4953766;28;20093;-92
2023/05/21 00:21:34;;;;;;;4.05;1.80;;;13.30;99.90;;;;;;4953049;28;20491;-93
2023/05/21 00:24:00;;;;;;;2.60;1.38;;;13.30;99.90;;;;;;4953668;29;20476;-92
2023/05/21 00:26:25;;;;;;;4.88;1.55;;;13.40;99.90;;;;;;4959198;28;20029;-92
2023/05/21 00:28:51;;;;;;;4.65;1.27;;;13.40;99.90;;;;;;4956876;28;20051;-92
2023/05/21 00:31:17;;;;;;;4.03;1.40;;;13.40;99.90;;;;;;4950943;29;20083;-92
2023/05/21 00:33:43;;;;;;;5.50;1.63;;;13.50;99.90;;;;;;4951840;28;20051;-93
2023/05/21 00:36:13;;;;;;;3.72;1.50;;;13.60;99.90;;;;;;4958101;28;20506;-92
2023/05/21 00:38:42;;;;;;;4.25;1.48;;;13.60;99.90;;;;;;4971773;28;20035;-92
2023/05/21 00:41:08;;;;;;;3.90;1.70;;;13.60;99.90;;;;;;4967591;28;20114;-92
2023/05/21 00:43:33;;;;;;;3.25;2.10;;;13.70;99.90;;;;;;4953152;28;20051;-91
2023/05/21 00:45:59;;;;;;;2.92;1.65;;;13.70;99.90;;;;;;4953569;28;20069;-91
2023/05/21 00:48:25;;;;;;;3.90;1.65;;;13.80;99.90;;;;;;4951490;28;20035;-92
2023/05/21 00:50:51;;;;;;;3.67;1.40;;;13.80;99.90;;;;;;4950165;28;20031;-92
2023/05/21 00:53:18;;;;;;;4.35;1.50;;;13.80;99.90;;;;;;4954727;28;20126;-92
2023/05/21 00:55:44;;;;;;;7.18;1.40;;;13.80;99.90;;;;;;4954031;28;20050;-92
2023/05/21 00:58:10;;;;;;;3.58;1.52;;;13.80;99.90;;;;;;4962699;28;20136;-92
2023/05/21 01:00:36;;;;;;;4.30;1.98;;;13.80;99.90;;;;;;4947984;29;20059;-92
2023/05/21 01:03:03;;;;;;;4.32;1.83;;;13.80;99.90;;;;;;4969253;28;20082;-92
2023/05/21 01:05:29;;;;;;;4.00;1.92;;;13.80;99.90;;;;;;4957695;28;20507;-92
2023/05/21 01:07:56;;;;;;;3.25;1.48;;;13.80;99.90;;;;;;4947370;28;20040;-92
2023/05/21 01:10:23;;;;;;;4.78;1.45;;;13.80;99.90;;;;;;4942884;28;20028;-92
2023/05/21 01:12:50;;;;;;;4.57;2.03;;;13.90;99.90;;;;;;4938418;29;20496;-92
2023/05/21 01:15:15;;;;;;;3.10;1.25;;;13.90;99.90;;;;;;4940781;29;20536;-92
2023/05/21 01:17:41;;;;;;;3.15;2.00;;;13.90;99.90;;;;;;4956175;28;20035;-92
2023/05/21 01:20:10;;;;;;;5.25;1.50;;;13.90;99.90;;;;;;4965077;28;20519;-92
2023/05/21 01:22:42;;;;;;;2.42;1.30;;;13.90;99.90;;;;;;4948131;28;20046;-92
2023/05/21 01:25:09;;;;;;;6.40;1.75;;;13.90;99.90;;;;;;4948766;28;20448;-92
2023/05/21 01:27:35;;;;;;;5.65;1.83;;;13.90;99.90;;;;;;4953266;28;20038;-93
2023/05/21 01:30:00;;;;;;;3.08;1.65;;;13.90;99.90;;;;;;4965746;28;20031;-92
2023/05/21 01:32:35;;;;;;;3.78;1.85;;;13.90;99.90;;;;;;4955352;28;20086;-92
2023/05/21 01:35:08;;;;;;;4.63;2.33;;;13.90;99.90;;;;;;4956022;28;20050;-92
2023/05/21 01:37:43;;;;;;;4.43;1.52;;;13.90;99.90;;;;;;4948278;29;20031;-92
2023/05/21 01:40:40;;;;;;;3.85;1.92;;;13.90;99.90;;;;;;4951509;29;20035;-92
2023/05/21 01:43:08;;;;;;;2.80;1.45;;;14.00;99.90;;;;;;4959300;28;20509;-92
2023/05/21 01:45:36;;;;;;;5.63;2.47;;;13.90;99.90;;;;;;4962624;28;20030;-93
2023/05/21 01:48:04;;;;;;;3.38;1.88;;;13.90;99.90;;;;;;4965254;28;20023;-93
2023/05/21 01:50:31;;;;;;;2.92;1.70;;;13.90;99.90;;;;;;4952439;28;20023;-93
2023/05/21 01:52:57;;;;;;;3.97;2.10;;;13.90;99.90;;;;;;4954441;28;20034;-92
2023/05/21 01:55:26;;;;;;;4.63;2.15;;;13.90;99.90;;;;;;4955149;28;20031;-93
2023/05/21 01:57:53;;;;;;;3.92;1.92;;;14.00;99.90;;;;;;4960422;28;20031;-93
2023/05/21 02:00:23;;;;;;;4.05;1.77;;;14.00;99.90;;;;;;4967939;28;20065;-93
2023/05/21 02:02:49;;;;;;;3.78;1.95;;;13.90;99.90;;;;;;4955770;29;20027;-92
2023/05/21 02:05:15;;;;;;;4.15;2.22;;;14.00;99.90;;;;;;4946957;28;20038;-93
2023/05/21 02:07:42;;;;;;;3.83;2.03;;;14.00;99.90;;;;;;4950383;28;20023;-92
2023/05/21 02:10:08;;;;;;;3.70;1.73;;;14.00;99.90;;;;;;4951983;29;20031;-92
2023/05/21 02:12:34;;;;;;;3.72;1.98;;;14.00;99.90;;;;;;4952830;28;20050;-92
2023/05/21 02:14:59;;;;;;;4.68;2.45;;;14.00;99.90;;;;;;4955810;28;20027;-92
2023/05/21 02:17:25;;;;;;;3.90;1.95;;;14.00;99.90;;;;;;4948746;29;20031;-92
2023/05/21 02:19:51;;;;;;;4.85;2.40;;;14.10;99.90;;;;;;4946094;29;20039;-92
2023/05/21 02:22:17;;;;;;;6.20;2.00;;;14.10;99.90;;;;;;4950605;28;20034;-92
2023/05/21 02:24:42;;;;;;;5.55;2.33;;;14.10;99.90;;;;;;4960060;28;20058;-92
2023/05/21 02:27:09;;;;;;;4.18;2.10;;;14.00;99.90;;;;;;4948413;28;20084;-91
2023/05/21 02:29:35;;;;;;;6.32;2.40;;;14.10;99.90;;;;;;4942621;29;20595;-91
2023/05/21 02:32:01;;;;;;;4.65;2.55;;;14.10;99.90;;;;;;4958310;28;20030;-91
2023/05/21 02:34:29;;;;;;;4.20;1.98;;;14.10;99.90;;;;;;4951928;28;20593;-92
2023/05/21 02:36:55;;;;;;;4.22;2.15;;;14.10;99.90;;;;;;4961153;28;20023;-91
2023/05/21 02:39:21;;;;;;;4.82;2.85;;;14.10;99.90;;;;;;4941209;28;20477;-92
2023/05/21 02:41:46;;;;;;;4.20;2.50;;;14.10;99.90;;;;;;4944159;29;20023;-91
2023/05/21 02:44:12;;;;;;;4.35;2.67;;;14.10;99.90;;;;;;4965270;28;20089;-92
2023/05/21 02:46:38;;;;;;;6.10;2.35;;;14.10;99.90;;;;;;4958110;28;20384;-92
2023/05/21 02:49:03;;;;;;;6.43;3.28;;;14.10;99.90;;;;;;4946232;29;20020;-92
2023/05/21 02:51:29;;;;;;;3.60;2.85;;;14.10;99.90;;;;;;4951688;29;20031;-92
2023/05/21 02:53:55;;;;;;;8.50;3.25;;;14.10;99.90;;;;;;4945813;28;20081;-92
2023/05/21 02:56:20;;;;;;;5.80;2.83;;;14.10;99.90;;;;;;4951828;29;20066;-93
2023/05/21 02:58:46;;;;;;;4.50;3.05;;;14.10;99.90;;;;;;4958698;28;20024;-93
2023/05/21 03:01:11;;;;;;;4.53;2.90;;;14.10;99.90;;;;;;4936360;29;20051;-92
2023/05/21 03:03:37;;;;;;;5.07;2.60;;;14.10;99.90;;;;;;4949233;29;20126;-92
2023/05/21 03:06:02;;;;;;;5.53;2.85;;;14.10;99.90;;;;;;4945693;28;20020;-92
2023/05/21 03:08:28;;;;;;;4.00;2.58;;;14.10;99.90;;;;;;4943931;28;20031;-92
2023/05/21 03:10:54;;;;;;;4.35;2.88;;;14.10;99.90;;;;;;4952399;28;20391;-92
2023/05/21 03:13:20;;;;;;;5.13;2.65;;;14.00;99.90;;;;;;4951077;28;20042;-91
2023/05/21 03:15:45;;;;;;;6.75;3.17;;;14.10;99.90;;;;;;4965121;28;20035;-92
2023/05/21 03:18:11;;;;;;;4.20;2.97;;;14.10;99.90;;;;;;4952139;29;20440;-92
2023/05/21 03:20:42;;;;;;;6.43;3.20;;;14.10;99.90;;;;;;4943309;29;20442;-92
2023/05/21 03:23:08;;;;;;;5.55;3.03;;;14.10;99.90;;;;;;4947656;29;20035;-92
2023/05/21 03:25:35;;;;;;;4.70;3.05;;;14.10;99.90;;;;;;4951039;29;20087;-92
2023/05/21 03:28:01;;;;;;;4.25;3.05;;;14.00;99.90;;;;;;4951719;29;20034;-91
2023/05/21 03:30:26;;;;;;;6.28;3.22;;;14.00;99.90;;;;;;4948446;29;20023;-92
2023/05/21 03:32:52;;;;;;;8.00;3.50;;;13.90;99.90;;;;;;4945104;29;20063;-92
2023/05/21 03:35:17;;;;;;;6.75;3.33;;;13.90;99.90;;;;;;4953886;28;20459;-91
2023/05/21 03:37:43;;;;;;;5.53;3.35;;;13.80;99.90;;;;;;4953089;29;20019;-92
2023/05/21 03:40:09;;;;;;;5.50;3.22;;;13.80;99.90;;;;;;4954700;29;20031;-92
2023/05/21 03:42:35;;;;;;;5.60;3.42;;;13.70;99.90;;;;;;4945040;29;20039;-92
2023/05/21 03:45:00;;;;;;;4.97;2.90;;;13.60;99.90;;;;;;4935924;29;20396;-92
2023/05/21 03:47:26;;;;;;;7.75;4.57;;;13.60;99.90;;;;;;4947992;29;20043;-92
2023/05/21 03:49:52;;;;;;;5.90;3.58;;;13.60;99.90;;;;;;4952493;29;20502;-92
2023/05/21 03:52:17;;;;;;;7.68;3.90;;;13.50;99.90;;;;;;4948848;29;20046;-91
2023/05/21 03:54:43;;;;;;;5.07;3.38;;;13.50;99.90;;;;;;4945787;29;20031;-92
2023/05/21 03:57:08;;;;;;;4.82;3.45;;;13.50;99.90;;;;;;4948980;29;20031;-92
2023/05/21 03:59:34;;;;;;;5.15;3.15;;;13.40;99.90;;;;;;4953046;29;20050;-92
2023/05/21 04:02:00;;;;;;;6.20;3.88;;;13.40;99.90;;;;;;4938973;29;20019;-92
2023/05/21 04:04:26;;;;;;;5.55;3.55;;;13.40;99.90;;;;;;4940352;29;20427;-92
2023/05/21 04:06:53;;;;;;;6.28;3.63;;;13.40;99.90;;;;;;4952119;29;20452;-92
2023/05/21 04:09:18;;;;;;;7.32;3.92;;;13.30;99.90;;;;;;4945843;29;20102;-92
2023/05/21 04:11:44;;;;;;;6.18;3.53;;;13.30;99.90;;;;;;4946220;29;20110;-93
2023/05/21 04:14:09;;;;;;;4.03;3.03;;;13.40;99.90;;;;;;4946066;29;20468;-91
2023/05/21 04:16:37;;;;;;;4.63;3.45;;;13.40;99.90;;;;;;4943916;29;20444;-92
2023/05/21 04:19:03;;;;;;;6.07;4.07;;;13.30;99.90;;;;;;4935640;29;20034;-92
2023/05/21 04:21:28;;;;;;;5.95;3.80;;;13.30;99.90;;;;;;4949634;29;20027;-92
2023/05/21 04:23:56;;;;;;;5.40;3.65;;;13.30;99.90;;;;;;4938229;29;20070;-92
2023/05/21 04:26:22;;;;;;;5.82;3.47;;;13.30;99.90;;;;;;4942828;29;20464;-92
2023/05/21 04:28:48;;;;;;;5.82;4.38;;;13.30;99.90;;;;;;4942257;29;20027;-92
2023/05/21 04:31:13;;;;;;;7.95;4.20;;;13.40;99.90;;;;;;4949279;28;20035;-92
2023/05/21 04:33:41;;;;;;;6.95;4.60;;;13.30;99.90;;;;;;4933488;28;20075;-92
2023/05/21 04:36:08;;;;;;;9.60;4.38;;;13.40;99.90;;;;;;4942017;29;20043;-92
2023/05/21 04:38:35;;;;;;;6.05;3.75;;;13.40;99.90;;;;;;4940821;29;20042;-91
2023/05/21 04:41:02;;;;;;;8.60;4.47;;;13.40;99.90;;;;;;4944556;29;20027;-92
2023/05/21 04:43:28;;;;;;;6.00;3.70;;;13.40;99.90;;;;;;4950437;29;20372;-91
2023/05/21 04:45:54;;;;;;;8.13;4.18;;;13.50;99.90;;;;;;4942805;29;20769;-92
2023/05/21 04:48:25;;;;;;;6.20;4.10;;;13.50;99.90;;;;;;4945362;28;20110;-92
2023/05/21 04:50:52;;;;;;;7.72;4.30;;;13.50;99.90;;;;;;4951126;28;20023;-92
2023/05/21 04:53:17;;;;;;;7.18;4.22;;;13.50;99.90;;;;;;4950658;28;20149;-92
2023/05/21 04:55:43;;;;;;;5.75;4.18;;;13.60;99.90;;;;;;4950028;28;20097;-92
2023/05/21 04:58:12;;;;;;;8.57;4.50;;;13.60;99.90;;;;;;4951116;28;20034;-91
2023/05/21 05:00:39;;;;;;;5.35;4.15;;;13.60;99.90;;;;;;4949080;28;20024;-92
2023/05/21 05:03:04;;;;;;;6.75;4.20;;;13.70;99.90;;;;;;4950275;28;20031;-91
2023/05/21 05:05:30;;;;;;;6.07;4.18;;;13.80;99.90;;;;;;4940611;28;20032;-91
2023/05/21 05:07:57;;;;;;;9.00;4.07;;;13.80;99.90;;;;;;4948067;28;20023;-91
2023/05/21 05:10:22;;;;;;;5.80;4.05;;;13.90;99.90;;;;;;4948861;28;20471;-91
2023/05/21 05:12:48;;;;;;;8.15;4.68;;;13.90;99.90;;;;;;4939203;28;20103;-92
2023/05/21 05:15:13;;;;;;;6.15;4.43;;;14.00;99.90;;;;;;4937026;28;20028;-92
2023/05/21 05:17:39;;;;;;;5.53;3.78;;;14.10;99.90;;;;;;4947532;28;20138;-91
2023/05/21 05:20:07;;;;;;;5.82;3.92;;;14.10;99.90;;;;;;4962662;28;20074;-92
2023/05/21 05:22:32;;;;;;;6.72;3.75;;;14.10;99.90;;;;;;4965541;28;20055;-91
2023/05/21 05:24:58;;;;;;;7.75;4.47;;;14.20;99.90;;;;;;4945480;28;20086;-92
2023/05/21 05:27:23;;;;;;;6.82;3.85;;;14.20;99.90;;;;;;4960669;28;20078;-91
2023/05/21 05:29:49;;;;;;;6.88;4.30;;;14.20;99.90;;;;;;4961362;28;20023;-92
2023/05/21 05:32:14;;;;;;;7.68;4.43;;;14.30;99.90;;;;;;4950309;28;20058;-92
2023/05/21 05:34:41;;;;;;;7.15;4.43;;;14.30;99.90;;;;;;4945410;28;20078;-91
2023/05/21 05:37:06;;;;;;;7.20;4.43;;;14.30;99.90;;;;;;4961079;28;20468;-91
2023/05/21 05:39:32;;;;;;;9.40;3.95;;;14.40;99.90;;;;;;4959941;28;20117;-91
2023/05/21 05:41:58;;;;;;;6.63;4.43;;;14.40;99.90;;;;;;4959770;28;20030;-92
2023/05/21 05:44:23;;;;;;;5.30;3.95;;;14.40;99.90;;;;;;4970608;28;20041;-91
2023/05/21 05:46:49;;;;;;;6.85;4.60;;;14.40;99.90;;;;;;4948717;28;20057;-92
2023/05/21 05:49:15;;;;;;;6.05;4.25;;;14.50;99.90;;;;;;4955404;28;20456;-92
2023/05/21 05:51:40;;;;;;;7.28;4.82;;;14.50;99.90;;;;;;4956813;28;20519;-92
2023/05/21 05:54:06;;;;;;;5.78;4.28;;;14.50;99.90;;;;;;4974567;28;20031;-92
2023/05/21 05:56:31;;;;;;;7.10;4.57;;;14.60;99.90;;;;;;4974928;28;20019;-91
2023/05/21 05:58:58;;;;;;;7.38;4.50;;;14.60;99.90;;;;;;4960043;28;20024;-90
2023/05/21 06:01:25;;;;;;;7.97;4.07;;;14.70;99.90;;;;;;4954296;29;20038;-91
2023/05/21 06:03:51;;;;;;;8.43;4.32;;;14.70;99.90;;;;;;4948018;29;20070;-92
2023/05/21 06:06:16;;;;;;;6.72;4.30;;;14.80;99.90;;;;;;4956405;28;20023;-92
2023/05/21 06:08:42;;;;;;;5.28;3.90;;;14.80;99.90;;;;;;4939923;29;20031;-92
2023/05/21 06:11:08;;;;;;;6.75;4.22;;;14.90;99.90;;;;;;4942910;28;20102;-91
2023/05/21 06:13:34;;;;;;;7.25;4.38;;;15.00;99.90;;;;;;4955211;29;20038;-91
2023/05/21 06:16:00;;;;;;;7.20;4.57;;;15.10;99.90;;;;;;4967156;28;20027;-91
2023/05/21 06:18:25;;;;;;;7.18;4.50;;;15.20;99.90;;;;;;4950611;28;20031;-92
2023/05/21 06:20:51;;;;;;;8.20;4.60;;;15.30;99.90;;;;;;4950909;28;20118;-92
2023/05/21 06:23:17;;;;;;;17.15;6.80;;;15.40;99.90;;;;;;4938322;28;20110;-91
2023/05/21 06:25:42;;;;;;;7.60;5.10;;;15.50;99.90;;;;;;4941320;28;20023;-92
2023/05/21 06:28:25;;;;;;;10.32;4.38;;;15.60;99.90;;;;;;4953294;28;20012;-89
2023/05/21 06:30:50;;;;;;;;;;;15.70;99.90;;;;;;4946409;29;20045;-92
2023/05/21 06:33:16;;;;;;;6.80;4.72;;;15.70;99.90;;;;;;4947336;28;19918;-95
2023/05/21 06:35:49;;;;;;;7.70;4.50;;;15.80;99.90;;;;;;4974281;28;20036;-96
2023/05/21 06:38:15;;;;;;;9.68;5.05;;;15.90;99.90;;;;;;4970527;28;20049;-91
2023/05/21 06:41:30;;;;;;;5.35;4.25;;;16.00;99.90;;;;;;4978624;28;20026;-91
2023/05/21 06:43:55;;;;;;;7.03;4.47;;;16.00;99.90;;;;;;4937432;28;20142;-92
2023/05/21 06:46:21;;;;;;;8.52;5.25;;;16.20;99.90;;;;;;4976504;28;20442;-92
2023/05/21 06:48:47;;;;;;;7.10;4.78;;;16.40;99.90;;;;;;4962961;28;20027;-92
2023/05/21 06:51:12;;;;;;;10.23;4.95;;;16.50;99.90;;;;;;4976506;28;20028;-92
2023/05/21 06:53:38;;;;;;;5.80;4.63;;;16.60;99.90;;;;;;4983401;28;20129;-92
2023/05/21 06:56:04;;;;;;;8.98;4.75;;;16.60;99.90;;;;;;4975660;28;20041;-92
2023/05/21 06:58:30;;;;;;;9.52;5.32;;;16.70;99.90;;;;;;4968806;28;20174;-92
2023/05/21 07:01:00;;;;;;;5.90;4.63;;;16.90;99.90;;;;;;4972384;28;20018;-91
2023/05/21 07:03:26;;;;;;;7.55;4.65;;;17.00;99.90;;;;;;4977191;28;20478;-91
2023/05/21 07:05:52;;;;;;;9.13;4.38;;;17.00;99.90;;;;;;4984005;28;20524;-92
2023/05/21 07:08:18;;;;;;;7.82;4.72;;;17.10;99.90;;;;;;4985826;28;20124;-91
2023/05/21 07:10:45;;;;;;;7.53;5.25;;;17.20;99.90;;;;;;4966767;28;20173;-91
2023/05/21 07:13:11;;;;;;;6.90;4.85;;;17.40;99.90;;;;;;4965161;28;20410;-92
2023/05/21 07:15:36;;;;;;;7.10;5.07;;;17.50;99.90;;;;;;4977404;28;20018;-91
2023/05/21 07:18:02;;;;;;;10.50;5.05;;;17.50;99.90;;;;;;4976786;28;20034;-91
2023/05/21 07:20:28;;;;;;;7.85;4.95;;;17.60;99.90;;;;;;4978894;28;20482;-92
2023/05/21 07:22:53;;;;;;;11.57;5.80;;;17.60;99.90;;;;;;4992379;28;20026;-92
2023/05/21 07:25:19;;;;;;;8.00;4.53;;;17.70;99.90;;;;;;4977116;28;20081;-92
2023/05/21 07:27:45;;;;;;;6.25;4.55;;;17.80;99.90;;;;;;4977193;28;20503;-91
2023/05/21 07:30:10;;;;;;;8.90;4.50;;;17.80;99.90;;;;;;4986958;28;20029;-92
2023/05/21 07:32:36;;;;;;;7.88;4.55;;;17.80;99.90;;;;;;4973425;28;20125;-92
2023/05/21 07:35:03;;;;;;;12.93;5.40;;;17.90;99.90;;;;;;4985339;28;20046;-91
2023/05/21 07:37:28;;;;;;;7.60;5.82;;;17.90;99.90;;;;;;4971821;28;20030;-92
2023/05/21 07:39:57;;;;;;;5.63;4.65;;;17.90;99.90;;;;;;4989243;28;20026;-92
2023/05/21 07:42:23;;;;;;;8.43;4.63;;;17.90;99.90;;;;;;4998693;28;20026;-89
2023/05/21 07:44:48;;;;;;;8.15;5.22;;;18.00;99.90;;;;;;5007734;28;20533;-90
2023/05/21 07:47:14;;;;;;;8.90;5.18;;;18.10;99.90;;;;;;4986717;28;20422;-88
2023/05/21 07:49:40;;;;;;;59.58;8.30;;;18.20;99.90;;;;;;4994522;28;20034;-89
2023/05/21 07:52:05;;;;;;;8.93;5.00;;;18.30;99.90;;;;;;4990856;28;20052;-90
2023/05/21 07:54:31;;;;;;;8.20;5.70;;;18.30;99.90;;;;;;4998043;28;20038;-89
2023/05/21 07:56:57;;;;;;;8.23;4.80;;;18.40;99.90;;;;;;4986426;28;20027;-88
2023/05/21 07:59:23;;;;;;;6.70;5.05;;;18.50;99.90;;;;;;4968287;28;20050;-89
2023/05/21 08:01:48;;;;;;;6.63;4.95;;;18.50;99.90;;;;;;4973663;28;20082;-89
2023/05/21 08:04:14;;;;;;;7.00;5.07;;;18.60;99.90;;;;;;5003855;28;20030;-88
2023/05/21 08:06:40;;;;;;;4.75;4.25;;;18.60;99.90;;;;;;4989542;28;20022;-90
2023/05/21 08:09:05;;;;;;;9.35;5.60;;;18.80;99.90;;;;;;4984289;28;20026;-89
2023/05/21 08:11:31;;;;;;;6.95;5.18;;;19.10;99.90;;;;;;4989716;28;20030;-89
2023/05/21 08:13:57;;;;;;;7.38;5.10;;;19.20;99.90;;;;;;4998679;28;20048;-89
2023/05/21 08:16:22;;;;;;;7.30;4.78;;;19.30;99.90;;;;;;4998295;28;20022;-89
2023/05/21 08:18:51;;;;;;;9.45;4.70;;;19.40;99.90;;;;;;5015503;28;20028;-89
2023/05/21 08:21:16;;;;;;;8.25;5.72;;;19.40;99.90;;;;;;4998872;28;20052;-90
2023/05/21 08:23:43;;;;;;;7.38;4.95;;;19.50;99.90;;;;;;4996219;28;20029;-89
2023/05/21 08:26:08;;;;;;;8.38;6.13;;;19.70;99.90;;;;;;4997949;28;20026;-89
2023/05/21 08:28:37;;;;;;;6.15;4.68;;;19.80;99.90;;;;;;4998035;28;20433;-90
2023/05/21 08:31:03;;;;;;;6.57;4.50;;;19.90;99.90;;;;;;4990147;28;20014;-90
2023/05/21 08:33:28;;;;;;;8.07;5.30;;;20.00;99.90;;;;;;4977856;28;20058;-90
2023/05/21 08:35:54;;;;;;;9.32;5.25;;;20.10;99.90;;;;;;4986296;28;20030;-89
2023/05/21 08:38:20;;;;;;;7.20;5.40;;;20.00;99.90;;;;;;4995351;28;20037;-89
2023/05/21 08:40:49;;;;;;;9.05;5.68;;;20.00;99.90;;;;;;4960782;28;20030;-89
2023/05/21 08:43:15;;;;;;;8.27;5.30;;;20.00;99.90;;;;;;4961148;28;20041;-89
2023/05/21 08:45:44;;;;;;;8.05;5.45;;;20.00;99.90;;;;;;4978055;28;20026;-89
2023/05/21 08:48:11;;;;;;;7.45;5.85;;;20.10;99.90;;;;;;4978571;28;20112;-90
2023/05/21 08:50:37;;;;;;;8.27;5.68;;;20.20;99.90;;;;;;4984754;28;20026;-88
2023/05/21 08:53:02;;;;;;;7.28;5.18;;;20.30;99.90;;;;;;4968941;28;20509;-89
2023/05/21 08:55:29;;;;;;;9.75;5.60;;;20.30;99.90;;;;;;4978149;28;20026;-89
2023/05/21 08:57:55;;;;;;;7.35;4.93;;;20.40;99.90;;;;;;4978414;28;20034;-89
2023/05/21 09:00:21;;;;;;;9.25;5.82;;;20.40;99.90;;;;;;4978162;28;20052;-89
2023/05/21 09:02:47;;;;;;;12.88;6.20;;;20.50;99.90;;;;;;4973913;28;20445;-89
2023/05/21 09:05:14;;;;;;;7.20;5.57;;;20.60;99.90;;;;;;4959040;28;20019;-89
2023/05/21 09:07:49;;;;;;;7.53;5.30;;;20.90;99.90;;;;;;4958821;28;20034;-89
2023/05/21 09:10:18;;;;;;;7.30;5.07;;;21.00;99.90;;;;;;4985407;28;20022;-90
2023/05/21 09:12:46;;;;;;;9.40;5.93;;;21.10;99.90;;;;;;4972121;28;20041;-90
2023/05/21 09:15:12;;;;;;;7.85;5.43;;;21.30;99.90;;;;;;4965375;28;20525;-87
2023/05/21 09:17:37;;;;;;;8.23;5.97;;;21.30;99.90;;;;;;4972672;28;20034;-88
2023/05/21 09:20:12;;;;;;;9.77;4.97;;;21.40;99.90;;;;;;4981593;28;20030;-88
2023/05/21 09:22:48;;;;;;;9.10;6.38;;;21.50;99.90;;;;;;4981930;28;20026;-88
2023/05/21 09:25:15;;;;;;;9.70;6.10;;;21.60;99.90;;;;;;4978973;28;20434;-88
2023/05/21 09:27:41;;;;;;;11.05;6.40;;;21.70;99.90;;;;;;4976606;28;21280;-90
2023/05/21 09:30:12;;;;;;;7.85;5.32;;;21.60;99.90;;;;;;4987213;28;20033;-89
2023/05/21 09:32:38;;;;;;;11.93;6.07;;;21.60;99.90;;;;;;4983959;28;20037;-89
2023/05/21 09:35:08;;;;;;;9.77;6.30;;;21.70;99.90;;;;;;4979537;28;20042;-88
2023/05/21 09:37:44;;;;;;;9.00;5.47;;;21.70;99.90;;;;;;4981688;28;20545;-88
2023/05/21 09:40:11;;;;;;;7.65;6.05;;;21.80;99.90;;;;;;4969261;28;20035;-88
2023/05/21 09:42:47;;;;;;;9.05;6.43;;;21.80;99.90;;;;;;4971173;28;20045;-92
2023/05/21 09:45:17;;;;;;;9.38;6.05;;;21.80;99.90;;;;;;4975945;28;20038;-87
2023/05/21 09:47:43;;;;;;;8.43;5.68;;;21.90;99.90;;;;;;4963408;28;20085;-91
2023/05/21 09:50:20;;;;;;;8.18;5.28;;;22.00;99.90;;;;;;4980607;28;20017;-88
2023/05/21 09:52:49;;;;;;;8.70;5.28;;;22.00;99.90;;;;;;5000628;28;20026;-89
2023/05/21 09:55:15;;;;;;;9.45;5.68;;;22.10;99.90;;;;;;4999083;28;20033;-88
2023/05/21 09:57:43;;;;;;;9.02;6.22;;;22.10;99.90;;;;;;4993451;28;20097;-89
2023/05/21 10:00:29;;;;;;;7.57;5.50;;;22.00;99.90;;;;;;4980148;28;20502;-88
2023/05/21 10:02:56;;;;;;;10.18;6.30;;;22.20;99.90;;;;;;4994237;28;20044;-88
2023/05/21 10:05:28;;;;;;;9.07;6.65;;;22.20;99.90;;;;;;4975473;28;20035;-88
2023/05/21 10:08:03;;;;;;;19.83;7.72;;;22.30;99.90;;;;;;4965426;28;20174;-88
2023/05/21 10:10:30;;;;;;;10.13;7.00;;;22.30;99.90;;;;;;4978128;28;20095;-88
2023/05/21 10:13:07;;;;;;;14.10;7.88;;;22.40;99.90;;;;;;4972595;28;20033;-88
2023/05/21 10:15:43;;;;;;;9.45;7.38;;;22.50;99.90;;;;;;4971868;28;20031;-88
2023/05/21 10:18:12;;;;;;;12.07;7.15;;;22.50;99.90;;;;;;4980934;28;20030;-87
2023/05/21 10:20:38;;;;;;;9.60;7.97;;;22.40;99.90;;;;;;4965953;28;20030;-88
2023/05/21 10:23:05;;;;;;;9.85;8.68;;;22.30;99.70;;;;;;4959603;28;20058;-87
2023/05/21 10:25:31;;;;;;;15.10;9.77;;;22.30;99.60;;;;;;4962130;28;20118;-87
2023/05/21 10:27:56;;;;;;;9.65;8.32;;;22.20;99.40;;;;;;4991768;28;20533;-88
2023/05/21 10:30:23;;;;;;;13.52;10.07;;;22.10;99.00;;;;;;4985675;28;20061;-88
2023/05/21 10:32:49;;;;;;;10.40;8.75;;;22.00;99.20;;;;;;4976648;28;20094;-89
2023/05/21 10:35:16;;;;;;;13.70;10.20;;;22.10;99.80;;;;;;4978547;28;20054;-89
2023/05/21 10:37:43;;;;;;;12.18;9.05;;;22.10;99.50;;;;;;4978560;28;20030;-88
2023/05/21 10:40:09;;;;;;;17.13;10.95;;;22.10;99.60;;;;;;4989089;28;20072;-89
2023/05/21 10:42:36;;;;;;;12.43;9.60;;;22.20;99.30;;;;;;4973242;28;20030;-89
2023/05/21 10:45:41;;;;;;;14.82;10.18;;;22.30;99.50;;;;;;4987322;28;20018;-88
2023/05/21 10:48:15;;;;;;;14.45;11.23;;;22.40;99.00;;;;;;4984972;28;20030;-87
2023/05/21 10:50:57;;;;;;;15.65;11.25;;;22.60;98.60;;;;;;5009439;28;20028;-87
2023/05/21 10:53:32;;;;;;;14.02;10.50;;;22.70;98.50;;;;;;4980614;28;20438;-87
2023/05/21 10:56:09;;;;;;;14.50;11.52;;;22.80;98.30;;;;;;4977903;28;20050;-88
2023/05/21 10:58:54;;;;;;;14.25;11.50;;;22.80;98.10;;;;;;4972063;28;20127;-87
2023/05/21 11:01:20;;;;;;;19.95;11.80;;;22.90;98.60;;;;;;4979513;28;20062;-87
2023/05/21 11:03:47;;;;;;;14.90;11.38;;;23.10;98.30;;;;;;4983448;28;20058;-87
2023/05/21 11:06:25;;;;;;;16.85;12.93;;;23.00;97.80;;;;;;4971064;28;20506;-87
2023/05/21 11:08:52;;;;;;;13.80;11.50;;;23.00;97.80;;;;;;4994494;28;20025;-87
2023/05/21 11:11:42;;;;;;;16.33;12.32;;;22.90;97.50;;;;;;4984508;28;20582;-87
2023/05/21 11:14:26;;;;;;;18.65;12.95;;;22.80;97.60;;;;;;4958399;28;20065;-88
2023/05/21 11:16:52;;;;;;;15.57;11.48;;;22.80;97.60;;;;;;4963441;28;20054;-87
2023/05/21 11:19:18;;;;;;;17.05;11.80;;;22.80;98.20;;;;;;4977594;28;20081;-87
2023/05/21 11:21:52;;;;;;;14.57;11.63;;;22.80;97.80;;;;;;4977666;28;20080;-87
2023/05/21 11:24:19;;;;;;;14.25;10.45;;;22.80;98.10;;;;;;4977440;28;20386;-87
2023/05/21 11:26:48;;;;;;;16.30;11.05;;;22.80;98.10;;;;;;4988580;28;20038;-88
2023/05/21 11:29:14;;;;;;;15.27;10.85;;;23.00;97.90;;;;;;4959221;28;20033;-88
2023/05/21 11:32:00;;;;;;;13.65;10.95;;;23.00;97.70;;;;;;4974768;28;20034;-88
2023/05/21 11:34:28;;;;;;;17.42;12.38;;;23.10;98.10;;;;;;4976561;28;20065;-86
2023/05/21 11:37:28;;;;;;;27.02;12.35;;;23.10;97.40;;;;;;4964789;28;20031;-88
2023/05/21 11:39:55;;;;;;;14.80;11.20;;;23.10;97.80;;;;;;4980369;28;20026;-88
2023/05/21 11:42:31;;;;;;;14.30;11.43;;;23.20;97.70;;;;;;4990365;28;20030;-87
2023/05/21 11:45:00;;;;;;;11.02;9.30;;;23.20;97.40;;;;;;4974671;28;20122;-88
2023/05/21 11:47:27;;;;;;;13.18;10.00;;;23.20;97.30;;;;;;4990334;28;20133;-88
2023/05/21 11:49:53;;;;;;;13.80;10.68;;;23.30;97.60;;;;;;4996107;28;20029;-88
2023/05/21 11:52:19;;;;;;;12.23;9.70;;;23.30;97.30;;;;;;4986159;28;20121;-89
2023/05/21 11:54:47;;;;;;;10.57;9.48;;;23.50;97.70;;;;;;4993216;28;20125;-88
2023/05/21 11:57:16;;;;;;;12.95;10.63;;;23.50;97.70;;;;;;4968236;28;20022;-87
2023/05/21 11:59:42;;;;;;;13.88;9.60;;;23.60;97.00;;;;;;4972670;28;20038;-88
2023/05/21 12:02:07;;;;;;;11.80;8.98;;;23.60;96.80;;;;;;4976508;28;20072;-88
2023/05/21 12:04:37;;;;;;;13.30;10.48;;;23.60;97.10;;;;;;4990058;28;20572;-87
2023/05/21 12:07:06;;;;;;;10.82;8.73;;;23.60;96.20;;;;;;4995804;28;20029;-87
2023/05/21 12:09:38;;;;;;;11.25;8.48;;;23.70;96.40;;;;;;4957150;28;20035;-88
2023/05/21 12:12:05;;;;;;;13.07;9.20;;;23.80;96.70;;;;;;4966892;28;20628;-88
2023/05/21 12:14:31;;;;;;;13.98;8.27;;;23.80;96.80;;;;;;4980859;28;20117;-87
2023/05/21 12:16:56;;;;;;;10.95;8.25;;;23.90;96.50;;;;;;4984002;28;20033;-86
2023/05/21 12:19:22;;;;;;;12.20;9.45;;;24.00;96.50;;;;;;5013232;28;20036;-88
2023/05/21 12:21:48;;;;;;;13.10;8.38;;;24.10;96.00;;;;;;4980236;28;20066;-88
2023/05/21 12:24:15;;;;;;;12.23;8.98;;;24.10;96.30;;;;;;4983540;28;20025;-88
2023/05/21 12:26:43;;;;;;;12.60;9.05;;;24.20;95.30;;;;;;4980347;28;20041;-89
2023/05/21 12:29:09;;;;;;;12.32;8.77;;;24.10;94.80;;;;;;4972817;28;20045;-88
2023/05/21 12:31:48;;;;;;;13.32;9.52;;;24.00;94.90;;;;;;4966037;28;20093;-88
2023/05/21 12:34:14;;;;;;;12.45;8.85;;;24.00;94.60;;;;;;4975391;28;20062;-89
2023/05/21 12:36:45;;;;;;;11.43;9.10;;;23.90;94.50;;;;;;4976021;28;20026;-88
2023/05/21 12:39:10;;;;;;;12.13;8.93;;;23.90;94.30;;;;;;4971512;28;20018;-89
2023/05/21 12:41:36;;;;;;;14.85;9.50;;;23.90;94.60;;;;;;4979314;28;20046;-88
2023/05/21 12:44:04;;;;;;;11.05;8.48;;;24.00;94.20;;;;;;4980357;28;20022;-90
2023/05/21 12:46:30;;;;;;;11.85;9.07;;;23.90;94.50;;;;;;4981443;28;20057;-91